createdAt,value
2019-01-25T00:01:49.805Z,50.77
2019-01-25T00:04:19.919Z,47.03
2019-01-25T00:06:51.129Z,44.93
2019-01-25T00:09:22.767Z,51.97
2019-01-25T00:11:52.681Z,47.17
2019-01-25T00:14:26.465Z,55.23
2019-01-25T00:16:58.998Z,47.30
2019-01-25T00:19:29.033Z,50.63
2019-01-25T00:22:10.938Z,46.97
2019-01-25T00:24:44.580Z,46.43
2019-01-25T00:27:16.914Z,51.30
2019-01-25T00:29:48.561Z,51.70
2019-01-25T00:32:20.925Z,54.70
2019-01-25T00:34:51.302Z,48.07
2019-01-25T00:37:21.557Z,46.47
2019-01-25T00:39:51.803Z,47.17
2019-01-25T00:42:24.930Z,47.60
2019-01-25T00:44:55.605Z,48.70
2019-01-25T00:47:30.792Z,47.73
2019-01-25T00:50:02.728Z,51.67
2019-01-25T00:52:32.916Z,51.10
2019-01-25T00:55:03.530Z,53.70
2019-01-25T00:57:36.882Z,47.70
2019-01-25T01:00:27.305Z,48.33
2019-01-25T01:03:15.543Z,49.40
2019-01-25T01:05:46.385Z,53.80
2019-01-25T01:08:19.435Z,51.57
2019-01-25T01:10:56.519Z,52.73
2019-01-25T01:13:27.440Z,51.30
2019-01-25T01:16:07.382Z,51.00
2019-01-25T01:18:38.465Z,52.93
2019-01-25T01:21:09.134Z,51.80
2019-01-25T01:23:41.833Z,49.63
2019-01-25T01:26:11.879Z,52.73
2019-01-25T01:28:42.323Z,44.97
2019-01-25T01:31:12.359Z,51.53
2019-01-25T01:33:42.520Z,57.40
2019-01-25T01:36:13.058Z,57.60
2019-01-25T01:38:43.751Z,49.37
2019-01-25T01:41:18.461Z,54.60
2019-01-25T01:43:48.495Z,48.53
2019-01-25T01:46:18.567Z,55.57
2019-01-25T01:48:52.929Z,55.53
2019-01-25T01:51:25.612Z,52.37
2019-01-25T01:53:55.849Z,49.87
2019-01-25T01:56:29.851Z,55.97
2019-01-25T01:59:03.941Z,52.30
2019-01-25T02:01:34.030Z,58.07
2019-01-25T02:04:03.898Z,56.63
2019-01-25T02:06:33.772Z,61.33
2019-01-25T02:09:05.802Z,54.00
2019-01-25T02:11:35.785Z,54.27
2019-01-25T02:14:05.802Z,53.80
2019-01-25T02:16:41.678Z,52.10
2019-01-25T02:19:11.733Z,53.47
2019-01-25T02:21:42.028Z,54.60
2019-01-25T02:24:11.922Z,54.17
2019-01-25T02:27:20.536Z,54.47
2019-01-25T02:29:50.626Z,50.73
2019-01-25T02:32:21.388Z,44.53
2019-01-25T02:34:51.320Z,52.53
2019-01-25T02:37:21.168Z,48.43
2019-01-25T02:39:51.480Z,49.63
2019-01-25T02:42:21.817Z,42.93
2019-01-25T02:44:51.277Z,45.40
2019-01-25T02:47:21.932Z,41.60
2019-01-25T02:49:52.203Z,39.13
2019-01-25T02:52:23.294Z,46.73
2019-01-25T02:54:53.438Z,42.57
2019-01-25T02:57:23.422Z,40.48
2019-01-25T02:59:53.309Z,46.33
2019-01-25T03:02:27.332Z,50.83
2019-01-25T03:04:56.882Z,43.30
2019-01-25T03:07:27.441Z,43.37
2019-01-25T03:09:57.169Z,44.70
2019-01-25T03:12:26.914Z,49.10
2019-01-25T03:14:56.875Z,44.47
2019-01-25T03:17:26.921Z,43.57
2019-01-25T03:19:56.778Z,44.83
2019-01-25T03:22:27.427Z,45.17
2019-01-25T03:24:57.157Z,44.00
2019-01-25T03:27:28.028Z,45.65
2019-01-25T03:30:09.635Z,47.47
2019-01-25T03:32:39.667Z,41.90
2019-01-25T03:35:11.691Z,43.90
2019-01-25T03:37:42.576Z,45.67
2019-01-25T03:40:18.295Z,41.30
2019-01-25T03:42:48.278Z,44.40
2019-01-25T03:45:21.779Z,51.80
2019-01-25T03:47:52.876Z,43.20
2019-01-25T03:50:27.971Z,39.40
2019-01-25T03:52:58.405Z,41.73
2019-01-25T03:55:28.340Z,44.03
2019-01-25T03:57:58.541Z,41.53
2019-01-25T04:00:32.960Z,41.17
2019-01-25T04:03:03.510Z,39.63
2019-01-25T04:05:34.328Z,44.87
2019-01-25T04:08:06.299Z,38.00
2019-01-25T04:10:36.225Z,36.87
2019-01-25T04:13:06.894Z,40.63
2019-01-25T04:15:36.891Z,38.50
2019-01-25T04:18:07.042Z,40.27
2019-01-25T04:20:36.925Z,40.93
2019-01-25T04:23:07.631Z,38.70
2019-01-25T04:25:37.530Z,39.30
2019-01-25T04:28:07.985Z,36.57
2019-01-25T04:30:37.666Z,39.63
2019-01-25T04:33:07.651Z,40.77
2019-01-25T04:35:37.515Z,36.47
2019-01-25T04:38:07.832Z,43.20
2019-01-25T04:40:37.945Z,38.97
2019-01-25T04:43:09.838Z,36.67
2019-01-25T04:45:41.773Z,39.33
2019-01-25T04:48:15.438Z,44.77
2019-01-25T04:50:45.813Z,40.00
2019-01-25T04:53:15.764Z,36.23
2019-01-25T04:55:45.653Z,37.10
2019-01-25T04:58:19.818Z,36.47
2019-01-25T05:00:50.089Z,39.07
2019-01-25T05:03:20.420Z,43.00
2019-01-25T05:05:51.462Z,42.87
2019-01-25T05:08:28.143Z,39.77
2019-01-25T05:10:58.037Z,39.13
2019-01-25T05:13:28.903Z,41.40
2019-01-25T05:15:59.553Z,40.20
2019-01-25T05:18:30.879Z,43.03
2019-01-25T05:21:00.871Z,44.77
2019-01-25T05:23:31.056Z,42.17
2019-01-25T05:26:01.215Z,41.53
2019-01-25T05:28:33.566Z,45.43
2019-01-25T05:31:07.831Z,40.27
2019-01-25T05:33:37.925Z,47.53
2019-01-25T05:36:08.161Z,46.00
2019-01-25T05:38:53.087Z,49.10
2019-01-25T05:41:37.189Z,50.13
2019-01-25T05:44:08.506Z,45.17
2019-01-25T05:46:43.704Z,69.50
2019-01-25T05:49:25.274Z,62.50
2019-01-25T05:52:26.307Z,49.77
2019-01-25T05:54:58.532Z,57.10
2019-01-25T05:57:30.500Z,54.47
2019-01-25T06:00:03.147Z,49.07
2019-01-25T06:02:32.888Z,47.33
2019-01-25T06:05:03.206Z,51.47
2019-01-25T06:10:34.816Z,53.97
2019-01-25T06:13:05.531Z,48.70
2019-01-25T06:15:38.940Z,53.00
2019-01-25T06:18:09.227Z,52.90
2019-01-25T06:20:55.814Z,48.87
2019-01-25T06:23:16.934Z,50.47
2019-01-25T06:26:06.161Z,51.97
2019-01-25T06:28:38.254Z,52.17
2019-01-25T06:31:09.546Z,53.40
2019-01-25T06:44:06.230Z,56.30
2019-01-25T06:46:36.079Z,54.03
2019-01-25T06:49:07.663Z,57.70
2019-01-25T06:52:16.224Z,54.00
2019-01-25T06:54:46.283Z,49.73
2019-01-25T06:57:37.750Z,48.30
2019-01-25T07:00:10.036Z,58.87
2019-01-25T07:02:41.135Z,77.53
2019-01-25T07:05:12.682Z,67.70
2019-01-25T07:07:44.980Z,63.87
2019-01-25T07:10:20.286Z,50.53
2019-01-25T07:12:55.192Z,58.47
2019-01-25T07:15:25.967Z,52.87
2019-01-25T07:17:56.435Z,62.27
2019-01-25T07:20:26.746Z,52.10
2019-01-25T07:22:56.783Z,58.80
2019-01-25T07:25:26.326Z,53.77
2019-01-25T07:27:56.428Z,50.80
2019-01-25T07:30:29.308Z,57.97
2019-01-25T07:32:59.266Z,53.80
2019-01-25T07:35:29.647Z,50.87
2019-01-25T07:37:59.223Z,57.33
2019-01-25T07:40:29.249Z,55.73
2019-01-25T07:42:58.448Z,64.10
2019-01-25T07:45:28.379Z,56.73
2019-01-25T07:47:58.037Z,52.33
2019-01-25T07:50:27.491Z,51.40
2019-01-25T07:52:57.409Z,58.50
2019-01-25T07:55:28.600Z,53.87
2019-01-25T07:57:58.317Z,51.77
2019-01-25T08:00:27.961Z,56.03
2019-01-25T08:02:57.802Z,55.83
2019-01-25T08:05:27.647Z,51.37
2019-01-25T08:07:57.397Z,61.30
2019-01-25T08:10:27.437Z,53.87
2019-01-25T08:12:59.966Z,51.93
2019-01-25T08:15:30.177Z,54.27
2019-01-25T08:18:00.081Z,62.40
2019-01-25T08:20:30.252Z,66.23
2019-01-25T08:23:00.161Z,57.13
2019-01-25T08:25:30.382Z,55.27
2019-01-25T08:28:00.124Z,55.43
2019-01-25T08:30:29.540Z,54.90
2019-01-25T08:33:00.031Z,53.33
2019-01-25T08:35:30.108Z,51.40
2019-01-25T08:37:59.810Z,58.63
2019-01-25T08:40:32.097Z,61.60
2019-01-25T08:43:01.549Z,49.90
2019-01-25T08:45:31.424Z,52.90
2019-01-25T08:48:01.124Z,54.83
2019-01-25T08:50:31.160Z,59.90
2019-01-25T08:53:01.163Z,56.00
2019-01-25T08:55:31.010Z,59.63
2019-01-25T08:58:00.553Z,56.00
2019-01-25T09:00:29.866Z,57.33
2019-01-25T09:02:59.698Z,53.10
2019-01-25T09:05:30.857Z,58.80
2019-01-25T09:08:00.635Z,52.77
2019-01-25T09:10:30.483Z,52.87
2019-01-25T09:13:00.273Z,53.67
2019-01-25T09:15:30.502Z,54.47
2019-01-25T09:18:00.313Z,54.23
2019-01-25T09:20:30.260Z,48.13
2019-01-25T09:22:59.949Z,53.13
2019-01-25T09:25:29.623Z,53.93
2019-01-25T09:27:59.360Z,55.50
2019-01-25T09:30:29.058Z,49.40
2019-01-25T09:32:58.624Z,54.87
2019-01-25T09:35:28.231Z,51.00
2019-01-25T09:49:55.221Z,49.87
2019-01-25T09:52:26.318Z,47.00
2019-01-25T09:54:56.411Z,48.30
2019-01-25T09:57:26.403Z,42.80
2019-01-25T09:59:56.612Z,49.37
2019-01-25T10:02:26.497Z,43.73
2019-01-25T10:04:59.304Z,48.13
2019-01-25T10:07:29.001Z,48.03
2019-01-25T10:10:00.003Z,40.50
2019-01-25T10:12:34.784Z,48.80
2019-01-25T10:15:01.450Z,45.33
2019-01-25T10:17:31.378Z,56.00
2019-01-25T10:20:01.629Z,56.10
2019-01-25T10:22:33.842Z,51.20
2019-01-25T10:25:04.111Z,50.47
2019-01-25T10:27:34.135Z,46.37
2019-01-25T10:30:06.491Z,47.87
2019-01-25T10:32:36.445Z,50.20
2019-01-25T10:35:09.890Z,48.53
2019-01-25T10:37:39.865Z,50.57
2019-01-25T10:40:12.381Z,46.23
2019-01-25T10:42:45.550Z,53.17
2019-01-25T10:45:19.863Z,49.60
2019-01-25T10:47:50.074Z,48.90
2019-01-25T10:50:20.505Z,43.07
2019-01-25T10:52:50.557Z,56.10
2019-01-25T10:55:20.547Z,50.17
2019-01-25T10:57:50.529Z,46.00
2019-01-25T11:00:20.670Z,42.57
2019-01-25T11:02:58.489Z,42.03
2019-01-25T11:05:27.717Z,52.20
2019-01-25T11:07:57.340Z,44.93
2019-01-25T11:10:28.054Z,45.50
2019-01-25T11:13:01.149Z,48.27
2019-01-25T11:15:28.798Z,50.40
2019-01-25T11:17:59.556Z,41.83
2019-01-25T11:20:29.018Z,45.80
2019-01-25T11:22:59.763Z,43.80
2019-01-25T11:25:31.766Z,46.67
2019-01-25T11:28:01.990Z,48.80
2019-01-25T11:30:33.386Z,39.03
2019-01-25T11:33:03.178Z,42.70
2019-01-25T11:35:32.987Z,48.23
2019-01-25T11:38:02.962Z,43.23
2019-01-25T11:40:39.973Z,41.37
2019-01-25T11:43:11.045Z,38.03
2019-01-25T11:45:41.099Z,45.43
2019-01-25T11:48:13.673Z,36.73
2019-01-25T11:50:44.504Z,43.00
2019-01-25T11:53:14.622Z,41.10
2019-01-25T11:55:44.381Z,42.47
2019-01-25T11:58:13.919Z,45.63
2019-01-25T12:00:45.725Z,40.97
2019-01-25T12:03:15.718Z,44.53
2019-01-25T12:05:45.681Z,43.13
2019-01-25T12:08:15.922Z,38.80
2019-01-25T12:10:45.598Z,40.67
2019-01-25T12:13:16.151Z,41.67
2019-01-25T12:15:46.491Z,37.47
2019-01-25T12:18:16.185Z,38.70
2019-01-25T12:20:45.828Z,35.13
2019-01-25T12:23:15.460Z,34.43
2019-01-25T12:25:44.773Z,26.83
2019-01-25T12:28:14.606Z,29.20
2019-01-25T12:30:46.567Z,26.17
2019-01-25T12:33:16.857Z,28.23
2019-01-25T12:35:47.563Z,30.60
2019-01-25T12:38:17.905Z,27.47
2019-01-25T12:40:47.952Z,31.70
2019-01-25T12:43:23.849Z,30.00
2019-01-25T12:45:50.332Z,29.33
2019-01-25T12:48:20.935Z,32.43
2019-01-25T12:51:33.253Z,28.77
2019-01-25T12:54:03.294Z,30.43
2019-01-25T12:56:33.256Z,24.83
2019-01-25T12:59:03.202Z,23.10
2019-01-25T13:01:34.971Z,19.97
2019-01-25T13:04:04.993Z,18.53
2019-01-25T13:06:34.488Z,18.57
2019-01-25T13:09:05.741Z,19.50
2019-01-25T13:11:35.301Z,19.50
2019-01-25T13:14:04.977Z,22.90
2019-01-25T13:16:34.499Z,21.97
2019-01-25T13:19:04.683Z,25.60
2019-01-25T13:21:33.929Z,15.50
2019-01-25T13:24:03.997Z,18.13
2019-01-25T13:26:33.995Z,19.83
2019-01-25T13:29:04.311Z,19.17
2019-01-25T13:31:34.077Z,20.20
2019-01-25T13:34:04.034Z,18.93
2019-01-25T13:36:34.417Z,20.40
2019-01-25T13:39:06.193Z,21.23
2019-01-25T13:41:36.682Z,19.40
2019-01-25T13:44:08.206Z,18.23
2019-01-25T13:46:37.935Z,27.40
2019-01-25T13:49:08.861Z,21.63
2019-01-25T13:51:41.717Z,19.37
2019-01-25T13:54:11.569Z,20.57
2019-01-25T13:56:41.258Z,18.53
2019-01-25T13:59:10.816Z,20.93
2019-01-25T14:01:41.231Z,20.13
2019-01-25T14:04:11.354Z,18.40
2019-01-25T14:06:43.755Z,18.93
2019-01-25T14:09:14.186Z,16.20
2019-01-25T14:11:44.613Z,17.37
2019-01-25T14:14:14.080Z,18.77
2019-01-25T14:16:43.733Z,18.43
2019-01-25T14:19:14.170Z,14.97
2019-01-25T14:21:44.040Z,21.00
2019-01-25T14:24:16.652Z,19.13
2019-01-25T14:26:46.101Z,17.83
2019-01-25T14:29:16.056Z,21.23
2019-01-25T14:31:45.658Z,17.43
2019-01-25T14:34:18.126Z,17.30
2019-01-25T14:36:50.761Z,17.83
2019-01-25T14:39:26.566Z,22.70
2019-01-25T14:42:04.159Z,20.57
2019-01-25T14:44:33.867Z,26.40
2019-01-25T14:47:03.408Z,38.87
2019-01-25T14:49:32.955Z,30.60
2019-01-25T14:52:02.549Z,25.57
2019-01-25T14:54:32.318Z,23.33
2019-01-25T14:57:01.746Z,19.10
2019-01-25T14:59:31.147Z,19.50
2019-01-25T15:02:00.791Z,18.30
2019-01-25T15:04:30.528Z,17.70
2019-01-25T15:07:00.043Z,21.00
2019-01-25T15:09:29.462Z,20.83
2019-01-25T15:12:01.768Z,21.50
2019-01-25T15:14:31.108Z,31.73
2019-01-25T15:17:00.781Z,20.47
2019-01-25T15:19:30.441Z,21.47
2019-01-25T15:25:42.113Z,20.07
2019-01-25T15:28:14.614Z,18.50
2019-01-25T15:30:46.258Z,22.33
2019-01-25T15:33:16.026Z,21.90
2019-01-25T15:35:46.009Z,22.73
2019-01-25T15:38:19.232Z,17.90
2019-01-25T15:40:49.512Z,21.50
2019-01-25T15:43:20.398Z,25.83
2019-01-25T15:45:50.832Z,28.10
2019-01-25T15:48:20.884Z,27.20
2019-01-25T15:50:51.337Z,29.00
2019-01-25T15:53:21.094Z,33.20
2019-01-25T15:55:50.812Z,29.97
2019-01-25T15:58:27.620Z,35.50
2019-01-25T16:00:57.476Z,29.63
2019-01-25T16:03:27.471Z,29.77
2019-01-25T16:05:57.446Z,25.53
2019-01-25T16:08:27.284Z,28.53
2019-01-25T16:10:56.867Z,26.30
2019-01-25T16:13:26.493Z,26.53
2019-01-25T16:15:56.074Z,25.80
2019-01-25T16:18:26.036Z,30.17
2019-01-25T16:20:55.847Z,25.40
2019-01-25T16:23:25.399Z,25.03
2019-01-25T16:25:56.370Z,25.77
2019-01-25T16:28:27.492Z,24.47
2019-01-25T16:30:56.858Z,24.23
2019-01-25T16:33:26.667Z,22.63
2019-01-25T16:35:56.200Z,25.27
2019-01-25T16:38:25.632Z,26.00
2019-01-25T16:40:55.505Z,24.70
2019-01-25T16:43:26.210Z,27.80
2019-01-25T16:45:55.580Z,33.57
2019-01-25T16:48:25.931Z,32.97
2019-01-25T16:50:55.672Z,30.67
2019-01-25T16:53:25.578Z,37.47
2019-01-25T16:55:55.456Z,35.03
2019-01-25T16:58:24.950Z,34.90
2019-01-25T17:00:54.282Z,27.70
2019-01-25T17:03:23.481Z,28.97
2019-01-25T17:05:53.018Z,34.40
2019-01-25T17:08:22.694Z,30.53
2019-01-25T17:10:52.392Z,37.67
2019-01-25T17:13:22.145Z,49.53
2019-01-25T17:15:51.780Z,38.50
2019-01-25T17:18:21.702Z,34.90
2019-01-25T17:20:51.746Z,32.37
2019-01-25T17:23:21.171Z,35.63
2019-01-25T17:25:50.511Z,37.60
2019-01-25T17:28:21.093Z,34.17
2019-01-25T17:30:50.594Z,33.70
2019-01-25T17:33:19.880Z,33.70
2019-01-25T17:35:49.594Z,32.67
2019-01-25T17:38:19.274Z,28.43
2019-01-25T17:40:48.751Z,33.00
2019-01-25T17:43:18.198Z,33.23
2019-01-25T17:45:47.579Z,26.30
2019-01-25T17:48:17.042Z,29.77
2019-01-25T17:50:46.481Z,30.07
2019-01-25T17:53:16.031Z,30.00
2019-01-25T17:55:45.347Z,32.53
2019-01-25T17:58:14.619Z,29.53
2019-01-25T18:00:53.397Z,25.57
2019-01-25T18:44:56.885Z,27.77
2019-01-25T18:47:27.444Z,26.10
2019-01-25T18:49:57.589Z,25.83
2019-01-25T18:52:31.241Z,26.30
2019-01-25T18:55:05.380Z,24.90
2019-01-25T18:57:35.477Z,24.53
2019-01-25T19:00:26.246Z,44.20
2019-01-25T19:02:56.495Z,28.03
2019-01-25T19:05:36.425Z,25.23
2019-01-25T19:08:06.816Z,23.20
2019-01-25T19:10:49.963Z,28.30
2019-01-25T19:13:21.355Z,27.90
2019-01-25T19:15:51.208Z,25.33
2019-01-25T19:18:21.314Z,25.00
2019-01-25T19:20:52.972Z,29.17
2019-01-25T19:23:23.255Z,27.00
2019-01-25T19:25:58.159Z,28.30
2019-01-25T19:28:28.477Z,26.40
2019-01-25T19:31:02.954Z,25.90
2019-01-25T19:33:30.359Z,22.63
2019-01-25T19:36:01.264Z,22.70
2019-01-25T19:38:35.529Z,24.63
2019-01-25T19:41:11.675Z,21.00
2019-01-25T19:44:17.157Z,23.20
2019-01-25T19:46:49.214Z,23.63
2019-01-25T19:49:33.835Z,20.30
2019-01-25T19:52:16.028Z,22.57
2019-01-25T19:54:56.039Z,21.77
2019-01-25T19:57:28.720Z,22.47
2019-01-25T20:00:11.450Z,20.67
2019-01-25T20:02:51.452Z,19.63
2019-01-25T20:08:05.367Z,19.87
2019-01-25T20:10:40.769Z,16.13
2019-01-25T20:13:14.246Z,22.07
2019-01-25T20:16:03.061Z,21.63
2019-01-25T20:18:53.897Z,25.83
2019-01-25T20:21:25.090Z,22.73
2019-01-25T20:24:13.208Z,22.80
2019-01-25T20:26:43.873Z,18.40
2019-01-25T20:29:15.180Z,20.37
2019-01-25T20:31:45.472Z,23.47
2019-01-25T20:34:23.988Z,22.60
2019-01-25T20:36:55.633Z,20.50
2019-01-25T20:39:27.603Z,18.73
2019-01-25T20:42:08.472Z,20.40
2019-01-25T20:44:57.628Z,22.17
2019-01-25T20:47:31.834Z,21.40
2019-01-25T20:50:07.741Z,22.77
2019-01-25T20:52:46.918Z,24.70
2019-01-25T20:55:18.029Z,20.33
2019-01-25T20:58:22.481Z,23.43
2019-01-25T21:04:03.971Z,19.63
2019-01-25T21:06:35.266Z,20.43
2019-01-25T21:09:08.558Z,19.63
2019-01-25T21:11:38.762Z,16.47
2019-01-25T21:14:10.030Z,21.07
2019-01-25T21:16:40.563Z,21.33
2019-01-25T21:19:11.573Z,18.37
2019-01-25T21:21:41.587Z,18.97
2019-01-25T21:24:20.623Z,19.50
2019-01-25T21:26:49.185Z,19.20
2019-01-25T21:29:19.802Z,18.63
2019-01-25T21:31:50.971Z,16.90
2019-01-25T21:34:25.037Z,17.90
2019-01-25T21:37:07.535Z,15.70
2019-01-25T21:39:39.180Z,20.23
2019-01-25T21:42:10.206Z,17.80
2019-01-25T21:44:41.095Z,16.27
2019-01-25T21:47:10.882Z,16.07
2019-01-25T21:49:40.999Z,15.67
2019-01-25T21:52:11.014Z,18.87
2019-01-25T21:54:40.983Z,23.60
2019-01-25T21:57:11.807Z,16.93
2019-01-25T21:59:44.871Z,20.20
2019-01-25T22:02:15.095Z,15.00
2019-01-25T22:04:47.135Z,14.80
2019-01-25T22:07:18.179Z,15.07
2019-01-25T22:09:48.328Z,16.43
2019-01-25T22:12:18.091Z,15.10
2019-01-25T22:14:48.341Z,15.30
2019-01-25T22:17:18.307Z,16.70
2019-01-25T22:19:49.782Z,16.97
2019-01-25T22:22:23.098Z,16.00
2019-01-25T22:24:52.058Z,17.33
2019-01-25T22:27:21.876Z,18.37
2019-01-25T22:29:51.471Z,15.90
2019-01-25T22:32:21.658Z,16.57
2019-01-25T22:34:51.397Z,17.33
2019-01-25T22:37:21.224Z,17.63
2019-01-25T22:39:53.105Z,16.13
2019-01-25T22:42:23.250Z,17.97
2019-01-25T22:44:54.522Z,17.83
2019-01-25T22:47:25.276Z,15.60
2019-01-25T22:49:55.689Z,18.67
2019-01-25T22:52:28.863Z,17.37
2019-01-25T22:55:00.533Z,19.37
2019-01-25T22:57:34.401Z,19.00
2019-01-25T23:00:05.849Z,17.83
2019-01-25T23:02:36.041Z,17.00
2019-01-25T23:05:28.308Z,20.10
2019-01-25T23:08:00.862Z,18.83
2019-01-25T23:10:30.885Z,17.57
2019-01-25T23:13:00.972Z,18.80
2019-01-25T23:15:31.209Z,17.60
2019-01-25T23:18:01.687Z,16.27
2019-01-25T23:20:34.866Z,21.03
2019-01-25T23:23:04.690Z,19.47
2019-01-25T23:25:35.116Z,17.33
2019-01-25T23:28:09.947Z,18.43
2019-01-25T23:30:36.883Z,16.07
2019-01-25T23:33:07.014Z,14.27
2019-01-25T23:35:36.958Z,17.50
2019-01-25T23:38:06.966Z,17.03
2019-01-25T23:40:39.291Z,18.10
2019-01-25T23:43:09.090Z,15.50
2019-01-25T23:45:48.891Z,19.20
2019-01-25T23:48:19.463Z,18.13
2019-01-25T23:50:49.442Z,19.00
2019-01-25T23:53:36.431Z,14.10
2019-01-25T23:56:31.929Z,16.27
2019-01-25T23:59:01.854Z,16.77
